sensor_id;sensor_type;location;lat;lon;timestamp;P1;durP1;ratioP1;P2;durP2;ratioP2
60908;SDS011;46780;48.128;-1.704;2022-08-03T00:00:40;14.52;;;4.35;;
60908;SDS011;46780;48.128;-1.704;2022-08-03T00:03:06;28.25;;;4.63;;
60908;SDS011;46780;48.128;-1.704;2022-08-03T00:05:33;14.10;;;4.57;;
60908;SDS011;46780;48.128;-1.704;2022-08-03T00:07:59;20.92;;;5.25;;
60908;SDS011;46780;48.128;-1.704;2022-08-03T00:10:26;14.15;;;4.80;;
60908;SDS011;46780;48.128;-1.704;2022-08-03T00:12:54;15.52;;;4.78;;
60908;SDS011;46780;48.128;-1.704;2022-08-03T00:15:20;17.23;;;4.72;;
60908;SDS011;46780;48.128;-1.704;2022-08-03T00:17:47;18.90;;;4.95;;
60908;SDS011;46780;48.128;-1.704;2022-08-03T00:20:13;18.15;;;4.70;;
60908;SDS011;46780;48.128;-1.704;2022-08-03T00:22:40;18.48;;;4.78;;
60908;SDS011;46780;48.128;-1.704;2022-08-03T00:25:06;17.88;;;4.80;;
60908;SDS011;46780;48.128;-1.704;2022-08-03T00:27:33;21.27;;;4.78;;
60908;SDS011;46780;48.128;-1.704;2022-08-03T00:30:01;16.40;;;4.80;;
60908;SDS011;46780;48.128;-1.704;2022-08-03T00:32:27;15.30;;;5.07;;
60908;SDS011;46780;48.128;-1.704;2022-08-03T00:34:54;15.18;;;4.72;;
60908;SDS011;46780;48.128;-1.704;2022-08-03T00:37:20;17.88;;;5.18;;
60908;SDS011;46780;48.128;-1.704;2022-08-03T00:39:46;15.50;;;5.07;;
60908;SDS011;46780;48.128;-1.704;2022-08-03T00:42:13;15.75;;;5.35;;
60908;SDS011;46780;48.128;-1.704;2022-08-03T00:44:40;19.35;;;5.15;;
60908;SDS011;46780;48.128;-1.704;2022-08-03T00:47:09;15.45;;;4.72;;
60908;SDS011;46780;48.128;-1.704;2022-08-03T00:49:36;15.43;;;4.82;;
60908;SDS011;46780;48.128;-1.704;2022-08-03T00:52:04;16.90;;;5.38;;
60908;SDS011;46780;48.128;-1.704;2022-08-03T00:54:33;15.82;;;4.88;;
60908;SDS011;46780;48.128;-1.704;2022-08-03T00:57:00;15.23;;;5.15;;
60908;SDS011;46780;48.128;-1.704;2022-08-03T00:59:28;17.05;;;5.30;;
60908;SDS011;46780;48.128;-1.704;2022-08-03T01:01:54;16.23;;;5.13;;
60908;SDS011;46780;48.128;-1.704;2022-08-03T01:04:22;18.98;;;5.13;;
60908;SDS011;46780;48.128;-1.704;2022-08-03T01:06:50;18.85;;;4.97;;
60908;SDS011;46780;48.128;-1.704;2022-08-03T01:09:22;19.02;;;4.78;;
60908;SDS011;46780;48.128;-1.704;2022-08-03T01:11:53;13.35;;;4.78;;
60908;SDS011;46780;48.128;-1.704;2022-08-03T01:14:29;16.02;;;5.03;;
60908;SDS011;46780;48.128;-1.704;2022-08-03T01:17:00;19.17;;;5.05;;
60908;SDS011;46780;48.128;-1.704;2022-08-03T01:19:43;18.40;;;4.70;;
60908;SDS011;46780;48.128;-1.704;2022-08-03T01:22:17;16.05;;;4.80;;
60908;SDS011;46780;48.128;-1.704;2022-08-03T01:25:02;17.73;;;4.70;;
60908;SDS011;46780;48.128;-1.704;2022-08-03T01:27:38;19.63;;;4.63;;
60908;SDS011;46780;48.128;-1.704;2022-08-03T01:30:17;14.50;;;4.93;;
60908;SDS011;46780;48.128;-1.704;2022-08-03T01:32:45;17.25;;;5.03;;
60908;SDS011;46780;48.128;-1.704;2022-08-03T01:35:18;17.60;;;5.30;;
60908;SDS011;46780;48.128;-1.704;2022-08-03T01:37:51;15.73;;;5.50;;
60908;SDS011;46780;48.128;-1.704;2022-08-03T01:40:23;17.15;;;5.10;;
60908;SDS011;46780;48.128;-1.704;2022-08-03T01:42:52;15.63;;;5.05;;
60908;SDS011;46780;48.128;-1.704;2022-08-03T01:45:21;16.63;;;5.20;;
60908;SDS011;46780;48.128;-1.704;2022-08-03T01:47:49;15.85;;;5.13;;
60908;SDS011;46780;48.128;-1.704;2022-08-03T01:50:18;19.45;;;5.43;;
60908;SDS011;46780;48.128;-1.704;2022-08-03T01:55:16;18.70;;;5.15;;
60908;SDS011;46780;48.128;-1.704;2022-08-03T01:57:45;19.83;;;5.47;;
60908;SDS011;46780;48.128;-1.704;2022-08-03T02:00:14;18.17;;;5.50;;
60908;SDS011;46780;48.128;-1.704;2022-08-03T02:02:43;18.48;;;5.30;;
60908;SDS011;46780;48.128;-1.704;2022-08-03T02:05:13;18.73;;;5.85;;
60908;SDS011;46780;48.128;-1.704;2022-08-03T02:07:41;16.45;;;5.93;;
60908;SDS011;46780;48.128;-1.704;2022-08-03T02:10:08;14.85;;;6.00;;
60908;SDS011;46780;48.128;-1.704;2022-08-03T02:12:37;18.73;;;6.00;;
60908;SDS011;46780;48.128;-1.704;2022-08-03T02:15:05;25.20;;;5.72;;
60908;SDS011;46780;48.128;-1.704;2022-08-03T02:17:33;18.10;;;6.30;;
60908;SDS011;46780;48.128;-1.704;2022-08-03T02:20:02;16.88;;;5.97;;
60908;SDS011;46780;48.128;-1.704;2022-08-03T02:22:30;17.45;;;5.70;;
60908;SDS011;46780;48.128;-1.704;2022-08-03T02:24:58;12.68;;;5.03;;
60908;SDS011;46780;48.128;-1.704;2022-08-03T02:27:26;20.92;;;5.38;;
60908;SDS011;46780;48.128;-1.704;2022-08-03T02:29:55;13.20;;;4.20;;
60908;SDS011;46780;48.128;-1.704;2022-08-03T02:32:28;12.00;;;4.43;;
60908;SDS011;46780;48.128;-1.704;2022-08-03T02:34:57;10.38;;;4.10;;
60908;SDS011;46780;48.128;-1.704;2022-08-03T02:37:28;10.27;;;4.35;;
60908;SDS011;46780;48.128;-1.704;2022-08-03T02:40:00;14.55;;;4.95;;
60908;SDS011;46780;48.128;-1.704;2022-08-03T02:42:28;11.45;;;4.10;;
60908;SDS011;46780;48.128;-1.704;2022-08-03T02:44:58;13.65;;;4.40;;
60908;SDS011;46780;48.128;-1.704;2022-08-03T02:49:54;14.68;;;4.53;;
60908;SDS011;46780;48.128;-1.704;2022-08-03T02:52:24;11.13;;;4.05;;
60908;SDS011;46780;48.128;-1.704;2022-08-03T02:54:55;10.50;;;4.20;;
60908;SDS011;46780;48.128;-1.704;2022-08-03T02:57:24;11.95;;;4.00;;
60908;SDS011;46780;48.128;-1.704;2022-08-03T02:59:53;12.90;;;4.10;;
60908;SDS011;46780;48.128;-1.704;2022-08-03T03:02:21;14.38;;;5.03;;
60908;SDS011;46780;48.128;-1.704;2022-08-03T03:04:49;11.50;;;4.50;;
60908;SDS011;46780;48.128;-1.704;2022-08-03T03:07:17;10.85;;;3.97;;
60908;SDS011;46780;48.128;-1.704;2022-08-03T03:09:46;10.35;;;4.15;;
60908;SDS011;46780;48.128;-1.704;2022-08-03T03:12:13;12.98;;;4.10;;
60908;SDS011;46780;48.128;-1.704;2022-08-03T03:14:40;11.75;;;4.05;;
60908;SDS011;46780;48.128;-1.704;2022-08-03T03:17:07;10.43;;;4.20;;
60908;SDS011;46780;48.128;-1.704;2022-08-03T03:19:35;9.48;;;3.60;;
60908;SDS011;46780;48.128;-1.704;2022-08-03T03:22:04;11.60;;;4.18;;
60908;SDS011;46780;48.128;-1.704;2022-08-03T03:24:33;11.68;;;4.10;;
60908;SDS011;46780;48.128;-1.704;2022-08-03T03:27:02;10.32;;;3.80;;
60908;SDS011;46780;48.128;-1.704;2022-08-03T03:29:30;9.77;;;4.10;;
60908;SDS011;46780;48.128;-1.704;2022-08-03T03:31:57;10.02;;;4.00;;
60908;SDS011;46780;48.128;-1.704;2022-08-03T03:34:25;12.25;;;3.95;;
60908;SDS011;46780;48.128;-1.704;2022-08-03T03:36:54;12.23;;;4.07;;
60908;SDS011;46780;48.128;-1.704;2022-08-03T03:39:20;22.40;;;4.28;;
60908;SDS011;46780;48.128;-1.704;2022-08-03T03:41:47;14.70;;;4.10;;
60908;SDS011;46780;48.128;-1.704;2022-08-03T03:44:15;9.55;;;4.25;;
60908;SDS011;46780;48.128;-1.704;2022-08-03T03:46:42;10.45;;;4.13;;
60908;SDS011;46780;48.128;-1.704;2022-08-03T03:49:08;14.43;;;4.65;;
60908;SDS011;46780;48.128;-1.704;2022-08-03T03:51:35;11.68;;;4.40;;
60908;SDS011;46780;48.128;-1.704;2022-08-03T03:54:03;11.95;;;4.65;;
60908;SDS011;46780;48.128;-1.704;2022-08-03T03:56:29;10.00;;;4.75;;
60908;SDS011;46780;48.128;-1.704;2022-08-03T03:58:56;11.60;;;5.07;;
60908;SDS011;46780;48.128;-1.704;2022-08-03T04:01:24;12.02;;;4.60;;
60908;SDS011;46780;48.128;-1.704;2022-08-03T04:03:50;13.30;;;5.20;;
60908;SDS011;46780;48.128;-1.704;2022-08-03T04:06:17;18.10;;;6.03;;
60908;SDS011;46780;48.128;-1.704;2022-08-03T04:08:44;12.98;;;5.03;;
60908;SDS011;46780;48.128;-1.704;2022-08-03T04:11:12;12.77;;;5.95;;
60908;SDS011;46780;48.128;-1.704;2022-08-03T04:13:43;15.18;;;5.90;;
60908;SDS011;46780;48.128;-1.704;2022-08-03T04:16:15;13.43;;;5.97;;
60908;SDS011;46780;48.128;-1.704;2022-08-03T04:18:46;13.60;;;6.18;;
60908;SDS011;46780;48.128;-1.704;2022-08-03T04:21:17;14.85;;;6.13;;
60908;SDS011;46780;48.128;-1.704;2022-08-03T04:23:47;15.75;;;6.63;;
60908;SDS011;46780;48.128;-1.704;2022-08-03T04:26:19;17.48;;;7.22;;
60908;SDS011;46780;48.128;-1.704;2022-08-03T04:28:47;17.50;;;7.13;;
60908;SDS011;46780;48.128;-1.704;2022-08-03T04:31:15;15.85;;;6.88;;
60908;SDS011;46780;48.128;-1.704;2022-08-03T04:33:43;16.20;;;7.05;;
60908;SDS011;46780;48.128;-1.704;2022-08-03T04:36:13;18.65;;;7.57;;
60908;SDS011;46780;48.128;-1.704;2022-08-03T04:38:43;12.95;;;7.13;;
60908;SDS011;46780;48.128;-1.704;2022-08-03T04:41:23;16.92;;;7.28;;
60908;SDS011;46780;48.128;-1.704;2022-08-03T04:43:52;16.70;;;6.95;;
60908;SDS011;46780;48.128;-1.704;2022-08-03T04:46:21;14.70;;;7.93;;
60908;SDS011;46780;48.128;-1.704;2022-08-03T04:48:50;17.27;;;7.72;;
60908;SDS011;46780;48.128;-1.704;2022-08-03T04:51:18;18.33;;;8.15;;
60908;SDS011;46780;48.128;-1.704;2022-08-03T04:53:45;21.92;;;8.98;;
60908;SDS011;46780;48.128;-1.704;2022-08-03T04:56:11;23.00;;;8.57;;
60908;SDS011;46780;48.128;-1.704;2022-08-03T04:58:38;23.40;;;9.63;;
60908;SDS011;46780;48.128;-1.704;2022-08-03T05:01:04;22.60;;;9.50;;
60908;SDS011;46780;48.128;-1.704;2022-08-03T05:03:31;22.63;;;9.60;;
60908;SDS011;46780;48.128;-1.704;2022-08-03T05:05:59;19.63;;;9.82;;
60908;SDS011;46780;48.128;-1.704;2022-08-03T05:08:25;19.40;;;9.43;;
60908;SDS011;46780;48.128;-1.704;2022-08-03T05:10:52;19.75;;;9.35;;
60908;SDS011;46780;48.128;-1.704;2022-08-03T05:13:18;24.13;;;10.25;;
60908;SDS011;46780;48.128;-1.704;2022-08-03T05:15:44;22.73;;;10.50;;
60908;SDS011;46780;48.128;-1.704;2022-08-03T05:18:11;24.70;;;10.02;;
60908;SDS011;46780;48.128;-1.704;2022-08-03T05:20:38;20.67;;;9.77;;
60908;SDS011;46780;48.128;-1.704;2022-08-03T05:23:06;20.10;;;10.20;;
60908;SDS011;46780;48.128;-1.704;2022-08-03T05:25:32;21.02;;;10.50;;
60908;SDS011;46780;48.128;-1.704;2022-08-03T05:27:59;26.33;;;10.68;;
60908;SDS011;46780;48.128;-1.704;2022-08-03T05:30:26;22.23;;;10.75;;
60908;SDS011;46780;48.128;-1.704;2022-08-03T05:32:53;24.40;;;10.88;;
60908;SDS011;46780;48.128;-1.704;2022-08-03T05:35:19;25.88;;;11.00;;
60908;SDS011;46780;48.128;-1.704;2022-08-03T05:37:46;23.75;;;11.07;;
60908;SDS011;46780;48.128;-1.704;2022-08-03T05:40:13;23.95;;;11.05;;
60908;SDS011;46780;48.128;-1.704;2022-08-03T05:42:40;23.00;;;10.32;;
60908;SDS011;46780;48.128;-1.704;2022-08-03T05:45:07;22.65;;;10.93;;
60908;SDS011;46780;48.128;-1.704;2022-08-03T05:47:34;23.75;;;10.23;;
60908;SDS011;46780;48.128;-1.704;2022-08-03T05:50:01;22.80;;;10.25;;
60908;SDS011;46780;48.128;-1.704;2022-08-03T05:52:27;19.92;;;9.88;;
60908;SDS011;46780;48.128;-1.704;2022-08-03T05:54:53;23.42;;;10.30;;
60908;SDS011;46780;48.128;-1.704;2022-08-03T05:57:21;23.75;;;10.38;;
60908;SDS011;46780;48.128;-1.704;2022-08-03T05:59:48;20.45;;;10.32;;
60908;SDS011;46780;48.128;-1.704;2022-08-03T06:02:14;22.15;;;10.85;;
60908;SDS011;46780;48.128;-1.704;2022-08-03T06:04:41;25.92;;;10.45;;
60908;SDS011;46780;48.128;-1.704;2022-08-03T06:07:07;25.98;;;11.98;;
60908;SDS011;46780;48.128;-1.704;2022-08-03T06:09:34;27.10;;;11.27;;
60908;SDS011;46780;48.128;-1.704;2022-08-03T06:12:00;28.08;;;11.05;;
60908;SDS011;46780;48.128;-1.704;2022-08-03T06:14:28;25.08;;;11.23;;
60908;SDS011;46780;48.128;-1.704;2022-08-03T06:16:54;25.10;;;9.80;;
60908;SDS011;46780;48.128;-1.704;2022-08-03T06:19:21;21.60;;;10.30;;
60908;SDS011;46780;48.128;-1.704;2022-08-03T06:21:47;29.08;;;10.75;;
60908;SDS011;46780;48.128;-1.704;2022-08-03T06:24:14;25.60;;;9.95;;
60908;SDS011;46780;48.128;-1.704;2022-08-03T06:26:40;21.88;;;10.95;;
60908;SDS011;46780;48.128;-1.704;2022-08-03T06:29:07;22.65;;;10.60;;
60908;SDS011;46780;48.128;-1.704;2022-08-03T06:31:35;23.60;;;11.02;;
60908;SDS011;46780;48.128;-1.704;2022-08-03T06:34:01;22.10;;;10.77;;
60908;SDS011;46780;48.128;-1.704;2022-08-03T06:36:28;24.23;;;11.65;;
60908;SDS011;46780;48.128;-1.704;2022-08-03T06:38:55;26.23;;;11.68;;
60908;SDS011;46780;48.128;-1.704;2022-08-03T06:41:22;23.67;;;10.93;;
60908;SDS011;46780;48.128;-1.704;2022-08-03T06:43:48;28.92;;;11.40;;
60908;SDS011;46780;48.128;-1.704;2022-08-03T06:46:15;24.42;;;11.38;;
60908;SDS011;46780;48.128;-1.704;2022-08-03T06:48:43;23.30;;;11.18;;
60908;SDS011;46780;48.128;-1.704;2022-08-03T06:51:09;25.75;;;12.13;;
60908;SDS011;46780;48.128;-1.704;2022-08-03T06:53:36;23.10;;;10.90;;
60908;SDS011;46780;48.128;-1.704;2022-08-03T06:56:03;23.85;;;10.70;;
60908;SDS011;46780;48.128;-1.704;2022-08-03T06:58:29;22.80;;;9.82;;
60908;SDS011;46780;48.128;-1.704;2022-08-03T07:00:56;22.65;;;9.07;;
60908;SDS011;46780;48.128;-1.704;2022-08-03T07:03:22;22.88;;;10.65;;
60908;SDS011;46780;48.128;-1.704;2022-08-03T07:05:50;22.33;;;9.40;;
60908;SDS011;46780;48.128;-1.704;2022-08-03T07:08:17;22.25;;;9.98;;
60908;SDS011;46780;48.128;-1.704;2022-08-03T07:10:44;18.27;;;9.60;;
60908;SDS011;46780;48.128;-1.704;2022-08-03T07:13:10;20.00;;;9.57;;
60908;SDS011;46780;48.128;-1.704;2022-08-03T07:15:37;20.90;;;9.32;;
60908;SDS011;46780;48.128;-1.704;2022-08-03T07:18:05;21.58;;;8.93;;
60908;SDS011;46780;48.128;-1.704;2022-08-03T07:20:31;17.42;;;8.45;;
60908;SDS011;46780;48.128;-1.704;2022-08-03T07:22:59;18.67;;;8.70;;
60908;SDS011;46780;48.128;-1.704;2022-08-03T07:25:25;18.50;;;8.65;;
60908;SDS011;46780;48.128;-1.704;2022-08-03T07:27:52;18.13;;;8.20;;
60908;SDS011;46780;48.128;-1.704;2022-08-03T07:30:18;23.42;;;8.73;;
60908;SDS011;46780;48.128;-1.704;2022-08-03T07:32:45;20.27;;;7.95;;
60908;SDS011;46780;48.128;-1.704;2022-08-03T07:35:11;23.08;;;8.23;;
60908;SDS011;46780;48.128;-1.704;2022-08-03T07:37:38;18.98;;;8.25;;
60908;SDS011;46780;48.128;-1.704;2022-08-03T07:40:06;19.05;;;7.93;;
60908;SDS011;46780;48.128;-1.704;2022-08-03T07:42:33;15.10;;;7.32;;
60908;SDS011;46780;48.128;-1.704;2022-08-03T07:44:59;19.75;;;8.15;;
60908;SDS011;46780;48.128;-1.704;2022-08-03T07:47:26;21.17;;;9.20;;
60908;SDS011;46780;48.128;-1.704;2022-08-03T07:49:54;18.90;;;8.77;;
60908;SDS011;46780;48.128;-1.704;2022-08-03T07:52:21;20.30;;;8.70;;
60908;SDS011;46780;48.128;-1.704;2022-08-03T07:54:48;18.27;;;8.32;;
60908;SDS011;46780;48.128;-1.704;2022-08-03T07:57:16;17.05;;;7.43;;
60908;SDS011;46780;48.128;-1.704;2022-08-03T07:59:44;14.60;;;7.72;;
60908;SDS011;46780;48.128;-1.704;2022-08-03T08:02:10;19.95;;;8.88;;
60908;SDS011;46780;48.128;-1.704;2022-08-03T08:04:37;19.30;;;8.60;;
60908;SDS011;46780;48.128;-1.704;2022-08-03T08:07:03;17.63;;;8.32;;
60908;SDS011;46780;48.128;-1.704;2022-08-03T08:09:30;14.65;;;7.55;;
60908;SDS011;46780;48.128;-1.704;2022-08-03T08:11:56;19.27;;;7.53;;
60908;SDS011;46780;48.128;-1.704;2022-08-03T08:14:24;20.05;;;8.32;;
60908;SDS011;46780;48.128;-1.704;2022-08-03T08:16:51;20.15;;;8.23;;
60908;SDS011;46780;48.128;-1.704;2022-08-03T08:19:17;18.17;;;7.97;;
60908;SDS011;46780;48.128;-1.704;2022-08-03T08:21:44;18.38;;;7.32;;
60908;SDS011;46780;48.128;-1.704;2022-08-03T08:24:10;17.95;;;7.60;;
60908;SDS011;46780;48.128;-1.704;2022-08-03T08:26:37;19.63;;;7.32;;
60908;SDS011;46780;48.128;-1.704;2022-08-03T08:29:03;18.58;;;7.63;;
60908;SDS011;46780;48.128;-1.704;2022-08-03T08:31:31;15.60;;;7.25;;
60908;SDS011;46780;48.128;-1.704;2022-08-03T08:33:57;21.63;;;6.75;;
60908;SDS011;46780;48.128;-1.704;2022-08-03T08:36:24;18.00;;;6.75;;
60908;SDS011;46780;48.128;-1.704;2022-08-03T08:38:51;18.65;;;7.00;;
60908;SDS011;46780;48.128;-1.704;2022-08-03T08:41:17;19.23;;;6.20;;
60908;SDS011;46780;48.128;-1.704;2022-08-03T08:43:43;19.55;;;6.13;;
60908;SDS011;46780;48.128;-1.704;2022-08-03T08:46:11;19.48;;;6.35;;
60908;SDS011;46780;48.128;-1.704;2022-08-03T08:48:40;19.20;;;7.53;;
60908;SDS011;46780;48.128;-1.704;2022-08-03T08:53:36;17.83;;;7.35;;
60908;SDS011;46780;48.128;-1.704;2022-08-03T08:56:05;19.75;;;6.60;;
60908;SDS011;46780;48.128;-1.704;2022-08-03T08:58:33;14.52;;;6.10;;
60908;SDS011;46780;48.128;-1.704;2022-08-03T09:01:02;17.15;;;5.20;;
60908;SDS011;46780;48.128;-1.704;2022-08-03T09:03:31;15.90;;;5.65;;
60908;SDS011;46780;48.128;-1.704;2022-08-03T09:05:59;15.40;;;5.40;;
60908;SDS011;46780;48.128;-1.704;2022-08-03T09:08:27;14.07;;;5.55;;
60908;SDS011;46780;48.128;-1.704;2022-08-03T09:10:54;22.25;;;6.93;;
60908;SDS011;46780;48.128;-1.704;2022-08-03T09:13:21;20.92;;;5.88;;
60908;SDS011;46780;48.128;-1.704;2022-08-03T09:15:48;23.67;;;6.18;;
60908;SDS011;46780;48.128;-1.704;2022-08-03T09:18:33;19.75;;;5.53;;
60908;SDS011;46780;48.128;-1.704;2022-08-03T09:21:12;27.33;;;5.53;;
60908;SDS011;46780;48.128;-1.704;2022-08-03T09:23:43;24.33;;;5.78;;
60908;SDS011;46780;48.128;-1.704;2022-08-03T09:26:11;18.15;;;5.30;;
60908;SDS011;46780;48.128;-1.704;2022-08-03T09:28:38;16.90;;;6.00;;
60908;SDS011;46780;48.128;-1.704;2022-08-03T09:31:04;20.98;;;5.90;;
60908;SDS011;46780;48.128;-1.704;2022-08-03T09:33:32;19.50;;;5.88;;
60908;SDS011;46780;48.128;-1.704;2022-08-03T09:39:01;20.92;;;6.15;;
60908;SDS011;46780;48.128;-1.704;2022-08-03T09:41:28;19.50;;;6.28;;
60908;SDS011;46780;48.128;-1.704;2022-08-03T09:43:55;23.60;;;6.82;;
60908;SDS011;46780;48.128;-1.704;2022-08-03T09:46:22;21.23;;;7.65;;
60908;SDS011;46780;48.128;-1.704;2022-08-03T09:48:48;25.55;;;8.20;;
60908;SDS011;46780;48.128;-1.704;2022-08-03T09:51:15;26.48;;;8.02;;
60908;SDS011;46780;48.128;-1.704;2022-08-03T09:53:43;21.05;;;8.88;;
60908;SDS011;46780;48.128;-1.704;2022-08-03T09:56:10;31.05;;;9.02;;
60908;SDS011;46780;48.128;-1.704;2022-08-03T09:58:43;23.20;;;7.60;;
60908;SDS011;46780;48.128;-1.704;2022-08-03T10:01:11;33.60;;;6.40;;
60908;SDS011;46780;48.128;-1.704;2022-08-03T10:03:38;18.92;;;5.70;;
60908;SDS011;46780;48.128;-1.704;2022-08-03T10:06:13;21.15;;;6.15;;
60908;SDS011;46780;48.128;-1.704;2022-08-03T10:08:40;18.98;;;4.85;;
60908;SDS011;46780;48.128;-1.704;2022-08-03T10:11:08;19.08;;;5.07;;
60908;SDS011;46780;48.128;-1.704;2022-08-03T10:13:35;22.20;;;4.82;;
60908;SDS011;46780;48.128;-1.704;2022-08-03T10:16:02;19.52;;;4.80;;
60908;SDS011;46780;48.128;-1.704;2022-08-03T10:18:29;17.63;;;4.38;;
60908;SDS011;46780;48.128;-1.704;2022-08-03T10:20:57;14.68;;;4.13;;
60908;SDS011;46780;48.128;-1.704;2022-08-03T10:23:27;21.48;;;5.10;;
60908;SDS011;46780;48.128;-1.704;2022-08-03T10:28:26;27.52;;;5.32;;
60908;SDS011;46780;48.128;-1.704;2022-08-03T10:30:58;21.98;;;4.72;;
60908;SDS011;46780;48.128;-1.704;2022-08-03T10:33:26;26.52;;;4.60;;
60908;SDS011;46780;48.128;-1.704;2022-08-03T10:35:55;19.60;;;4.53;;
60908;SDS011;46780;48.128;-1.704;2022-08-03T10:38:24;18.03;;;4.47;;
60908;SDS011;46780;48.128;-1.704;2022-08-03T10:40:58;17.17;;;4.72;;
60908;SDS011;46780;48.128;-1.704;2022-08-03T10:45:55;22.67;;;4.88;;
60908;SDS011;46780;48.128;-1.704;2022-08-03T10:48:21;21.20;;;4.57;;
60908;SDS011;46780;48.128;-1.704;2022-08-03T10:50:48;19.98;;;4.65;;
60908;SDS011;46780;48.128;-1.704;2022-08-03T10:53:15;18.70;;;5.05;;
60908;SDS011;46780;48.128;-1.704;2022-08-03T10:56:01;23.77;;;5.10;;
60908;SDS011;46780;48.128;-1.704;2022-08-03T11:01:15;19.98;;;5.10;;
60908;SDS011;46780;48.128;-1.704;2022-08-03T11:06:54;15.27;;;4.63;;
60908;SDS011;46780;48.128;-1.704;2022-08-03T11:09:46;19.58;;;4.95;;
60908;SDS011;46780;48.128;-1.704;2022-08-03T11:12:22;19.92;;;5.53;;
60908;SDS011;46780;48.128;-1.704;2022-08-03T11:14:50;21.02;;;5.10;;
60908;SDS011;46780;48.128;-1.704;2022-08-03T11:17:19;15.27;;;4.67;;
60908;SDS011;46780;48.128;-1.704;2022-08-03T11:19:46;19.33;;;5.43;;
60908;SDS011;46780;48.128;-1.704;2022-08-03T11:22:13;20.85;;;5.10;;
60908;SDS011;46780;48.128;-1.704;2022-08-03T11:24:55;19.55;;;4.95;;
60908;SDS011;46780;48.128;-1.704;2022-08-03T11:27:24;20.73;;;4.97;;
60908;SDS011;46780;48.128;-1.704;2022-08-03T11:29:53;15.73;;;4.72;;
60908;SDS011;46780;48.128;-1.704;2022-08-03T11:35:17;21.08;;;4.88;;
60908;SDS011;46780;48.128;-1.704;2022-08-03T11:40:37;17.20;;;4.70;;
60908;SDS011;46780;48.128;-1.704;2022-08-03T11:43:07;21.92;;;4.70;;
60908;SDS011;46780;48.128;-1.704;2022-08-03T11:45:35;17.42;;;4.57;;
60908;SDS011;46780;48.128;-1.704;2022-08-03T11:48:11;21.80;;;4.90;;
60908;SDS011;46780;48.128;-1.704;2022-08-03T11:50:39;25.38;;;4.50;;
60908;SDS011;46780;48.128;-1.704;2022-08-03T11:53:06;19.98;;;4.50;;
60908;SDS011;46780;48.128;-1.704;2022-08-03T11:55:32;19.45;;;4.78;;
60908;SDS011;46780;48.128;-1.704;2022-08-03T12:00:30;15.75;;;4.25;;
60908;SDS011;46780;48.128;-1.704;2022-08-03T12:02:58;18.52;;;4.07;;
60908;SDS011;46780;48.128;-1.704;2022-08-03T12:05:36;17.60;;;4.70;;
60908;SDS011;46780;48.128;-1.704;2022-08-03T12:08:04;20.42;;;4.50;;
60908;SDS011;46780;48.128;-1.704;2022-08-03T12:10:32;15.68;;;4.20;;
60908;SDS011;46780;48.128;-1.704;2022-08-03T12:12:59;17.65;;;4.18;;
60908;SDS011;46780;48.128;-1.704;2022-08-03T12:15:27;19.33;;;3.90;;
60908;SDS011;46780;48.128;-1.704;2022-08-03T12:17:57;15.20;;;4.35;;
60908;SDS011;46780;48.128;-1.704;2022-08-03T12:20:24;19.73;;;4.05;;
60908;SDS011;46780;48.128;-1.704;2022-08-03T12:22:52;19.55;;;3.72;;
60908;SDS011;46780;48.128;-1.704;2022-08-03T12:25:20;19.73;;;4.20;;
60908;SDS011;46780;48.128;-1.704;2022-08-03T12:27:50;13.13;;;3.95;;
60908;SDS011;46780;48.128;-1.704;2022-08-03T12:30:18;17.40;;;3.80;;
60908;SDS011;46780;48.128;-1.704;2022-08-03T12:32:46;13.52;;;3.70;;
60908;SDS011;46780;48.128;-1.704;2022-08-03T12:35:22;17.00;;;3.65;;
60908;SDS011;46780;48.128;-1.704;2022-08-03T12:37:49;20.67;;;4.00;;
60908;SDS011;46780;48.128;-1.704;2022-08-03T12:40:23;14.60;;;3.40;;
60908;SDS011;46780;48.128;-1.704;2022-08-03T12:42:50;15.90;;;3.70;;
60908;SDS011;46780;48.128;-1.704;2022-08-03T12:45:17;18.55;;;4.07;;
60908;SDS011;46780;48.128;-1.704;2022-08-03T12:47:52;15.80;;;3.60;;
60908;SDS011;46780;48.128;-1.704;2022-08-03T12:50:23;15.27;;;3.33;;
60908;SDS011;46780;48.128;-1.704;2022-08-03T12:52:51;16.25;;;3.55;;
60908;SDS011;46780;48.128;-1.704;2022-08-03T12:55:18;14.18;;;3.30;;
60908;SDS011;46780;48.128;-1.704;2022-08-03T12:57:46;18.98;;;3.42;;
60908;SDS011;46780;48.128;-1.704;2022-08-03T13:00:13;12.63;;;3.33;;
60908;SDS011;46780;48.128;-1.704;2022-08-03T13:02:41;19.23;;;3.20;;
60908;SDS011;46780;48.128;-1.704;2022-08-03T13:05:10;13.57;;;3.80;;
60908;SDS011;46780;48.128;-1.704;2022-08-03T13:07:39;12.18;;;3.30;;
60908;SDS011;46780;48.128;-1.704;2022-08-03T13:10:06;13.90;;;3.20;;
60908;SDS011;46780;48.128;-1.704;2022-08-03T13:12:44;11.57;;;3.30;;
60908;SDS011;46780;48.128;-1.704;2022-08-03T13:15:12;18.35;;;3.10;;
60908;SDS011;46780;48.128;-1.704;2022-08-03T13:17:38;10.15;;;3.17;;
60908;SDS011;46780;48.128;-1.704;2022-08-03T13:20:05;11.90;;;3.08;;
60908;SDS011;46780;48.128;-1.704;2022-08-03T13:22:33;11.18;;;2.85;;
60908;SDS011;46780;48.128;-1.704;2022-08-03T13:25:00;11.02;;;3.33;;
60908;SDS011;46780;48.128;-1.704;2022-08-03T13:27:27;10.77;;;3.03;;
60908;SDS011;46780;48.128;-1.704;2022-08-03T13:29:55;16.13;;;3.13;;
60908;SDS011;46780;48.128;-1.704;2022-08-03T13:32:22;13.95;;;3.17;;
60908;SDS011;46780;48.128;-1.704;2022-08-03T13:34:48;14.35;;;3.05;;
60908;SDS011;46780;48.128;-1.704;2022-08-03T13:37:15;11.38;;;2.95;;
60908;SDS011;46780;48.128;-1.704;2022-08-03T13:39:43;10.93;;;2.88;;
60908;SDS011;46780;48.128;-1.704;2022-08-03T13:42:09;14.25;;;2.97;;
60908;SDS011;46780;48.128;-1.704;2022-08-03T13:44:36;11.70;;;3.03;;
60908;SDS011;46780;48.128;-1.704;2022-08-03T13:47:02;9.77;;;2.85;;
60908;SDS011;46780;48.128;-1.704;2022-08-03T13:49:29;12.48;;;3.05;;
60908;SDS011;46780;48.128;-1.704;2022-08-03T13:51:56;10.73;;;2.70;;
60908;SDS011;46780;48.128;-1.704;2022-08-03T13:54:22;11.07;;;2.65;;
60908;SDS011;46780;48.128;-1.704;2022-08-03T13:56:50;8.45;;;2.70;;
60908;SDS011;46780;48.128;-1.704;2022-08-03T13:59:17;9.50;;;2.67;;
60908;SDS011;46780;48.128;-1.704;2022-08-03T14:01:44;9.32;;;2.70;;
60908;SDS011;46780;48.128;-1.704;2022-08-03T14:04:11;11.05;;;2.60;;
60908;SDS011;46780;48.128;-1.704;2022-08-03T14:06:38;12.27;;;2.47;;
60908;SDS011;46780;48.128;-1.704;2022-08-03T14:09:04;8.48;;;2.58;;
60908;SDS011;46780;48.128;-1.704;2022-08-03T14:11:31;10.00;;;2.50;;
60908;SDS011;46780;48.128;-1.704;2022-08-03T14:13:59;8.77;;;2.50;;
60908;SDS011;46780;48.128;-1.704;2022-08-03T14:16:26;9.15;;;2.53;;
60908;SDS011;46780;48.128;-1.704;2022-08-03T14:18:53;8.25;;;2.47;;
60908;SDS011;46780;48.128;-1.704;2022-08-03T14:21:19;10.30;;;2.65;;
60908;SDS011;46780;48.128;-1.704;2022-08-03T14:23:46;7.00;;;2.20;;
60908;SDS011;46780;48.128;-1.704;2022-08-03T14:26:12;9.02;;;2.40;;
60908;SDS011;46780;48.128;-1.704;2022-08-03T14:28:39;6.18;;;2.33;;
60908;SDS011;46780;48.128;-1.704;2022-08-03T14:31:07;7.38;;;2.15;;
60908;SDS011;46780;48.128;-1.704;2022-08-03T14:33:34;8.15;;;2.38;;
60908;SDS011;46780;48.128;-1.704;2022-08-03T14:36:00;8.23;;;2.60;;
60908;SDS011;46780;48.128;-1.704;2022-08-03T14:38:27;10.45;;;2.47;;
60908;SDS011;46780;48.128;-1.704;2022-08-03T14:40:53;10.93;;;2.40;;
60908;SDS011;46780;48.128;-1.704;2022-08-03T14:43:20;8.88;;;2.42;;
60908;SDS011;46780;48.128;-1.704;2022-08-03T14:45:47;7.97;;;2.47;;
60908;SDS011;46780;48.128;-1.704;2022-08-03T14:48:15;9.50;;;2.60;;
60908;SDS011;46780;48.128;-1.704;2022-08-03T14:50:41;12.80;;;2.67;;
60908;SDS011;46780;48.128;-1.704;2022-08-03T14:53:08;9.60;;;2.53;;
60908;SDS011;46780;48.128;-1.704;2022-08-03T14:55:35;8.98;;;2.75;;